createdAt,value
2023-01-25T00:00:30.614Z,38.97
2023-01-25T00:02:57.452Z,29.88
2023-01-25T00:05:24.645Z,37.47
2023-01-25T00:07:51.520Z,33.58
2023-01-25T00:10:18.610Z,35.95
2023-01-25T00:12:45.414Z,34.67
2023-01-25T00:15:12.455Z,34.22
2023-01-25T00:17:39.353Z,33.70
2023-01-25T00:20:07.183Z,36.05
2023-01-25T00:22:34.014Z,34.63
2023-01-25T00:25:00.889Z,33.15
2023-01-25T00:27:27.700Z,29.88
2023-01-25T00:29:54.438Z,36.05
2023-01-25T00:32:21.323Z,35.58
2023-01-25T00:34:52.201Z,33.03
2023-01-25T00:37:36.777Z,40.60
2023-01-25T00:40:05.023Z,35.85
2023-01-25T00:42:31.968Z,43.30
2023-01-25T00:44:58.750Z,32.55
2023-01-25T00:47:25.653Z,32.95
2023-01-25T00:49:52.555Z,37.95
2023-01-25T00:52:19.319Z,40.53
2023-01-25T00:54:46.273Z,36.67
2023-01-25T00:57:13.100Z,32.55
2023-01-25T00:59:44.475Z,32.17
2023-01-25T01:02:12.248Z,35.08
2023-01-25T01:04:39.227Z,36.03
2023-01-25T01:07:06.428Z,39.10
2023-01-25T01:09:33.580Z,37.95
2023-01-25T01:12:01.164Z,34.55
2023-01-25T01:14:28.021Z,40.15
2023-01-25T01:16:57.094Z,32.08
2023-01-25T01:19:24.874Z,37.38
2023-01-25T01:21:51.695Z,32.22
2023-01-25T01:24:18.629Z,36.35
2023-01-25T01:26:45.539Z,38.67
2023-01-25T01:29:13.929Z,34.83
2023-01-25T01:31:40.937Z,36.85
2023-01-25T01:34:07.836Z,34.78
2023-01-25T01:36:34.701Z,37.10
2023-01-25T01:39:01.579Z,38.70
2023-01-25T01:41:28.338Z,39.78
2023-01-25T01:43:55.224Z,34.92
2023-01-25T01:46:37.545Z,42.53
2023-01-25T01:49:04.488Z,40.15
2023-01-25T01:51:52.339Z,36.75
2023-01-25T01:54:29.166Z,38.88
2023-01-25T01:57:00.034Z,35.88
2023-01-25T01:59:33.232Z,41.28
2023-01-25T02:02:00.104Z,34.60
2023-01-25T02:04:28.536Z,36.28
2023-01-25T02:07:05.859Z,36.25
2023-01-25T02:09:36.251Z,35.42
2023-01-25T02:12:04.883Z,34.92
2023-01-25T02:14:31.837Z,34.92
2023-01-25T02:16:59.244Z,37.13
2023-01-25T02:19:52.984Z,36.63
2023-01-25T02:22:25.968Z,39.13
2023-01-25T02:25:09.755Z,43.95
2023-01-25T02:27:42.189Z,39.92
2023-01-25T02:30:09.816Z,37.50
2023-01-25T02:32:36.680Z,43.92
2023-01-25T02:35:03.514Z,36.05
2023-01-25T02:37:30.357Z,41.83
2023-01-25T02:39:57.133Z,39.15
2023-01-25T02:42:24.002Z,38.85
2023-01-25T02:44:51.835Z,41.78
2023-01-25T02:47:18.773Z,44.22
2023-01-25T02:49:45.570Z,36.05
2023-01-25T02:52:12.539Z,35.50
2023-01-25T02:54:39.375Z,42.75
2023-01-25T02:57:06.609Z,54.65
2023-01-25T02:59:33.352Z,36.22
2023-01-25T03:02:00.139Z,33.83
2023-01-25T03:04:26.997Z,38.10
2023-01-25T03:06:53.873Z,31.00
2023-01-25T03:09:20.699Z,34.33
2023-01-25T03:11:47.497Z,40.00
2023-01-25T03:14:14.458Z,38.75
2023-01-25T03:16:41.344Z,41.13
2023-01-25T03:19:08.119Z,39.97
2023-01-25T03:21:34.861Z,37.63
2023-01-25T03:24:03.110Z,39.65
2023-01-25T03:26:30.684Z,43.30
2023-01-25T03:28:57.649Z,36.22
2023-01-25T03:31:25.046Z,41.65
2023-01-25T03:33:51.923Z,42.03
2023-01-25T03:36:18.876Z,37.92
2023-01-25T03:38:45.696Z,35.75
2023-01-25T03:41:13.891Z,37.45
2023-01-25T03:43:40.848Z,38.38
2023-01-25T03:46:07.922Z,39.08
2023-01-25T03:48:34.831Z,35.03
2023-01-25T03:51:01.848Z,35.08
2023-01-25T03:53:30.355Z,37.90
2023-01-25T03:56:08.400Z,32.65
2023-01-25T03:58:36.764Z,34.03
2023-01-25T04:01:05.346Z,33.47
2023-01-25T04:03:32.873Z,35.03
2023-01-25T04:05:59.927Z,33.88
2023-01-25T04:08:27.231Z,37.42
2023-01-25T04:10:56.258Z,39.08
2023-01-25T04:13:25.806Z,42.15
2023-01-25T04:15:52.918Z,35.35
2023-01-25T04:18:20.169Z,32.08
2023-01-25T04:20:52.577Z,39.72
2023-01-25T04:23:19.650Z,30.77
2023-01-25T04:26:14.476Z,34.05
2023-01-25T04:28:41.642Z,34.47
2023-01-25T04:31:08.521Z,40.58
2023-01-25T04:33:35.750Z,45.40
2023-01-25T04:36:03.059Z,34.50
2023-01-25T04:38:29.869Z,34.38
2023-01-25T04:40:56.755Z,39.45
2023-01-25T04:43:25.073Z,34.63
2023-01-25T04:45:51.989Z,37.63
2023-01-25T04:48:19.124Z,32.00
2023-01-25T04:50:46.388Z,34.00
2023-01-25T04:53:13.643Z,34.63
2023-01-25T04:55:40.674Z,38.72
2023-01-25T04:58:07.580Z,40.42
2023-01-25T05:00:34.695Z,34.72
2023-01-25T05:03:01.736Z,37.03
2023-01-25T05:05:28.529Z,30.40
2023-01-25T05:07:55.283Z,44.50
2023-01-25T05:10:22.173Z,39.58
2023-01-25T05:12:48.898Z,34.10
2023-01-25T05:15:15.730Z,37.60
2023-01-25T05:17:42.588Z,33.75
2023-01-25T05:20:10.232Z,44.67
2023-01-25T05:22:37.031Z,39.25
2023-01-25T05:25:06.286Z,40.38
2023-01-25T05:27:33.157Z,31.92
2023-01-25T05:30:00.028Z,42.10
2023-01-25T05:32:26.895Z,38.50
2023-01-25T05:34:53.709Z,39.67
2023-01-25T05:37:21.528Z,39.30
2023-01-25T05:39:48.475Z,39.70
2023-01-25T05:42:17.634Z,42.75
2023-01-25T05:44:47.335Z,41.38
2023-01-25T05:47:17.501Z,38.70
2023-01-25T05:49:44.428Z,37.08
2023-01-25T05:52:15.472Z,42.72
2023-01-25T05:54:42.420Z,41.25
2023-01-25T05:57:09.403Z,35.70
2023-01-25T05:59:36.395Z,42.13
2023-01-25T06:02:03.224Z,39.40
2023-01-25T06:04:30.028Z,33.25
2023-01-25T06:06:58.280Z,48.88
2023-01-25T06:09:27.066Z,40.35
2023-01-25T06:11:53.975Z,41.70
2023-01-25T06:14:20.823Z,41.53
2023-01-25T06:16:47.654Z,41.67
2023-01-25T06:19:14.480Z,41.42
2023-01-25T06:21:41.336Z,33.95
2023-01-25T06:24:08.316Z,40.63
2023-01-25T06:26:35.264Z,37.72
2023-01-25T06:29:02.104Z,46.92
2023-01-25T06:31:29.094Z,34.35
2023-01-25T06:33:56.084Z,49.80
2023-01-25T06:36:22.951Z,49.65
2023-01-25T06:38:51.619Z,36.85
2023-01-25T06:41:19.343Z,36.78
2023-01-25T06:43:46.896Z,40.97
2023-01-25T06:46:13.933Z,45.10
2023-01-25T06:48:44.497Z,34.47
2023-01-25T06:51:13.787Z,42.45
2023-01-25T06:53:43.261Z,38.78
2023-01-25T06:56:12.970Z,33.65
2023-01-25T06:58:40.532Z,31.00
2023-01-25T07:01:13.783Z,38.38
2023-01-25T07:03:41.260Z,37.95
2023-01-25T07:06:10.404Z,37.80
2023-01-25T07:08:38.238Z,42.63
2023-01-25T07:11:07.215Z,31.95
2023-01-25T07:13:34.588Z,34.30
2023-01-25T07:16:04.163Z,34.05
2023-01-25T07:18:32.547Z,40.83
2023-01-25T07:21:23.477Z,36.60
2023-01-25T07:23:52.090Z,31.55
2023-01-25T07:26:24.735Z,32.38
2023-01-25T07:28:52.860Z,34.22
2023-01-25T07:31:20.937Z,35.42
2023-01-25T07:33:49.872Z,34.30
2023-01-25T07:36:17.011Z,31.17
2023-01-25T07:38:43.919Z,30.23
2023-01-25T07:41:10.914Z,37.45
2023-01-25T07:43:37.901Z,31.73
2023-01-25T07:46:07.631Z,35.63
2023-01-25T07:48:34.662Z,27.13
2023-01-25T07:51:12.603Z,30.63
2023-01-25T07:53:40.940Z,37.47
2023-01-25T07:56:09.197Z,49.22
2023-01-25T07:58:36.123Z,28.77
2023-01-25T08:01:14.814Z,31.33
2023-01-25T08:03:42.486Z,36.92
2023-01-25T08:06:10.920Z,39.35
2023-01-25T08:08:44.888Z,30.75
2023-01-25T08:11:17.318Z,31.87
2023-01-25T08:13:47.292Z,36.38
2023-01-25T08:16:14.859Z,31.77
2023-01-25T08:18:41.676Z,33.35
2023-01-25T08:21:08.773Z,25.08
2023-01-25T08:23:36.036Z,28.30
2023-01-25T08:26:07.706Z,37.42
2023-01-25T08:28:35.789Z,30.02
2023-01-25T08:31:21.165Z,34.28
2023-01-25T08:33:48.597Z,30.77
2023-01-25T08:36:18.299Z,35.15
2023-01-25T08:38:46.699Z,31.17
2023-01-25T08:41:15.723Z,33.15
2023-01-25T08:43:44.738Z,31.75
2023-01-25T08:46:12.569Z,40.72
2023-01-25T08:48:39.473Z,31.08
2023-01-25T08:51:09.028Z,39.05
2023-01-25T08:53:35.839Z,35.15
2023-01-25T08:56:07.897Z,29.30
2023-01-25T08:58:36.740Z,30.08
2023-01-25T09:01:08.871Z,37.53
2023-01-25T09:03:37.830Z,36.53
2023-01-25T09:06:05.061Z,37.05
2023-01-25T09:08:32.529Z,30.67
2023-01-25T09:11:13.748Z,44.88
2023-01-25T09:13:43.556Z,35.30
2023-01-25T09:16:16.745Z,40.88
2023-01-25T09:18:44.754Z,40.45
2023-01-25T09:21:20.507Z,38.92
2023-01-25T09:24:05.583Z,31.30
2023-01-25T09:26:35.592Z,46.17
2023-01-25T09:29:03.043Z,36.60
2023-01-25T09:31:30.386Z,39.38
2023-01-25T09:33:58.390Z,37.72
2023-01-25T09:36:25.408Z,36.72
2023-01-25T09:38:52.510Z,39.47
2023-01-25T09:41:22.194Z,36.05
2023-01-25T09:44:14.810Z,36.63
2023-01-25T09:46:53.186Z,36.35
2023-01-25T09:49:26.102Z,35.60
2023-01-25T09:52:30.792Z,35.63
2023-01-25T09:54:58.846Z,32.50
2023-01-25T09:57:35.356Z,36.42
2023-01-25T10:00:15.458Z,36.30
2023-01-25T10:02:54.955Z,35.30
2023-01-25T10:05:32.397Z,35.28
2023-01-25T10:08:32.449Z,33.35
2023-01-25T10:11:11.967Z,37.55
2023-01-25T10:13:38.759Z,36.35
2023-01-25T10:16:25.938Z,31.58
2023-01-25T10:19:30.019Z,36.13
2023-01-25T10:22:05.229Z,34.65
2023-01-25T10:24:52.785Z,38.78
2023-01-25T10:27:50.060Z,32.90
2023-01-25T10:30:34.239Z,38.72
2023-01-25T10:33:07.634Z,33.55
2023-01-25T10:35:45.759Z,38.13
2023-01-25T10:38:32.670Z,30.35
2023-01-25T10:41:48.033Z,31.33
2023-01-25T10:44:27.894Z,33.90
2023-01-25T10:47:34.175Z,38.13
2023-01-25T10:50:01.090Z,28.77
2023-01-25T10:52:30.801Z,36.00
2023-01-25T10:55:15.145Z,30.35
2023-01-25T10:57:50.437Z,32.63
2023-01-25T11:00:52.847Z,38.95
2023-01-25T11:03:20.931Z,37.72
2023-01-25T11:05:55.812Z,29.17
2023-01-25T11:08:31.924Z,35.88
2023-01-25T11:11:00.475Z,32.13
2023-01-25T11:13:33.091Z,37.67
2023-01-25T11:16:04.927Z,32.53
2023-01-25T11:18:38.274Z,35.92
2023-01-25T11:21:05.100Z,33.00
2023-01-25T11:23:34.528Z,34.28
2023-01-25T11:26:17.719Z,38.08
2023-01-25T11:28:46.077Z,36.40
2023-01-25T11:31:14.701Z,28.98
2023-01-25T11:33:42.313Z,32.83
2023-01-25T11:36:40.270Z,26.75
2023-01-25T11:39:27.399Z,32.45
2023-01-25T11:42:11.997Z,36.00
2023-01-25T11:44:57.616Z,31.63
2023-01-25T11:47:39.872Z,38.83
2023-01-25T11:50:34.411Z,43.70
2023-01-25T11:53:22.734Z,35.55
2023-01-25T11:55:58.088Z,45.55
2023-01-25T11:58:43.189Z,35.70
2023-01-25T12:01:28.518Z,37.88
2023-01-25T12:06:44.759Z,36.83
2023-01-25T12:09:37.574Z,35.35
2023-01-25T12:12:12.192Z,34.03
2023-01-25T12:15:07.517Z,32.75
2023-01-25T12:17:55.966Z,30.52
2023-01-25T12:20:44.729Z,35.17
2023-01-25T12:23:52.990Z,35.78
2023-01-25T12:26:44.180Z,50.15
2023-01-25T12:29:29.847Z,41.25
2023-01-25T12:32:09.224Z,34.03
2023-01-25T12:34:39.982Z,32.20
2023-01-25T12:37:18.526Z,37.10
2023-01-25T12:40:06.943Z,34.53
2023-01-25T12:42:42.448Z,32.47
2023-01-25T12:45:15.816Z,33.30
2023-01-25T12:47:49.300Z,48.20
2023-01-25T12:50:18.713Z,37.63
2023-01-25T12:52:50.487Z,29.88
2023-01-25T12:55:18.543Z,32.22
2023-01-25T12:58:03.448Z,38.47
2023-01-25T13:00:56.464Z,37.45
2023-01-25T13:03:54.114Z,47.38
2023-01-25T13:07:00.256Z,37.33
2023-01-25T13:12:11.791Z,42.20
2023-01-25T13:14:40.635Z,39.45
2023-01-25T13:17:30.627Z,36.72
2023-01-25T13:19:57.485Z,33.70
2023-01-25T13:22:45.778Z,32.15
2023-01-25T13:25:23.757Z,31.95
2023-01-25T13:27:50.652Z,34.58
2023-01-25T13:30:34.619Z,29.63
2023-01-25T13:33:04.501Z,41.17
2023-01-25T13:35:32.846Z,36.05
2023-01-25T13:38:19.603Z,30.27
2023-01-25T13:41:01.408Z,34.55
2023-01-25T13:43:28.393Z,39.58
2023-01-25T13:45:55.328Z,31.83
2023-01-25T13:48:24.932Z,28.33
2023-01-25T13:50:59.339Z,35.08
2023-01-25T13:53:33.395Z,36.15
2023-01-25T13:56:01.451Z,31.63
2023-01-25T13:58:31.107Z,36.47
2023-01-25T14:01:06.459Z,38.97
2023-01-25T14:03:59.768Z,34.25
2023-01-25T14:06:31.085Z,29.35
2023-01-25T14:09:02.956Z,33.83
2023-01-25T14:11:31.855Z,31.60
2023-01-25T14:14:15.183Z,29.70
2023-01-25T14:16:41.974Z,24.92
2023-01-25T14:19:29.743Z,30.67
2023-01-25T14:22:14.526Z,33.17
2023-01-25T14:24:41.468Z,31.50
2023-01-25T14:27:14.987Z,30.17
2023-01-25T14:29:42.086Z,26.75
2023-01-25T14:32:18.137Z,32.28
2023-01-25T14:34:45.012Z,27.60
2023-01-25T14:37:20.934Z,29.73
2023-01-25T14:39:49.368Z,33.50
2023-01-25T14:42:17.347Z,27.60
2023-01-25T14:44:45.475Z,33.10
2023-01-25T14:47:32.369Z,30.95
2023-01-25T14:50:30.432Z,26.95
2023-01-25T14:53:08.753Z,29.30
2023-01-25T14:55:37.018Z,26.70
2023-01-25T14:58:04.017Z,29.13
2023-01-25T15:00:35.900Z,31.33
2023-01-25T15:03:06.115Z,32.90
2023-01-25T15:05:35.860Z,32.92
2023-01-25T15:08:08.848Z,32.70
2023-01-25T15:10:37.562Z,33.35
2023-01-25T15:13:23.111Z,37.08
2023-01-25T15:16:01.130Z,33.20
2023-01-25T15:18:53.919Z,32.50
2023-01-25T15:21:26.631Z,33.42
2023-01-25T15:23:55.389Z,32.95
2023-01-25T15:26:24.820Z,30.83
2023-01-25T15:28:54.480Z,33.15
2023-01-25T15:31:26.601Z,31.02
2023-01-25T15:33:54.303Z,44.13
2023-01-25T15:36:21.178Z,36.30
2023-01-25T15:38:48.041Z,28.77
2023-01-25T15:41:15.394Z,35.92
2023-01-25T15:43:42.570Z,36.83
2023-01-25T15:46:26.409Z,29.75
2023-01-25T15:48:54.351Z,36.45
2023-01-25T15:51:22.110Z,34.63
2023-01-25T15:53:49.328Z,32.80
2023-01-25T15:56:22.249Z,37.00
2023-01-25T15:58:54.396Z,34.28
2023-01-25T16:01:22.953Z,35.33
2023-01-25T16:03:50.053Z,38.53
2023-01-25T16:06:31.910Z,31.13
2023-01-25T16:09:00.477Z,41.25
2023-01-25T16:11:27.772Z,33.50
2023-01-25T16:13:54.693Z,39.22
2023-01-25T16:16:23.879Z,40.90
2023-01-25T16:18:50.762Z,39.58
2023-01-25T16:21:17.616Z,26.70
2023-01-25T16:23:44.427Z,35.30
2023-01-25T16:26:29.623Z,36.20
2023-01-25T16:28:56.869Z,34.33
2023-01-25T16:31:32.291Z,32.72
2023-01-25T16:34:00.390Z,38.13
2023-01-25T16:36:27.298Z,32.15
2023-01-25T16:38:54.136Z,36.15
2023-01-25T16:41:21.015Z,29.05
2023-01-25T16:43:49.019Z,38.22
2023-01-25T16:46:18.873Z,35.45
2023-01-25T16:48:47.082Z,29.73
2023-01-25T16:51:22.682Z,31.90
2023-01-25T16:53:51.302Z,32.38
2023-01-25T16:56:23.726Z,31.33
2023-01-25T16:58:51.711Z,30.92
2023-01-25T17:01:20.831Z,32.95
2023-01-25T17:03:48.488Z,35.80
2023-01-25T17:06:20.260Z,35.30
2023-01-25T17:08:48.004Z,39.58
2023-01-25T17:11:15.988Z,37.30
2023-01-25T17:13:42.821Z,49.08
2023-01-25T17:16:09.759Z,35.03
2023-01-25T17:18:36.523Z,39.05
2023-01-25T17:21:06.586Z,39.35
2023-01-25T17:23:35.331Z,32.15
2023-01-25T17:26:11.142Z,35.70
2023-01-25T17:28:38.041Z,40.50
2023-01-25T17:31:05.429Z,33.35
2023-01-25T17:33:32.319Z,41.85
2023-01-25T17:36:02.948Z,37.95
2023-01-25T17:38:30.132Z,39.47
2023-01-25T17:40:57.019Z,37.50
2023-01-25T17:43:23.917Z,39.30
2023-01-25T17:45:50.747Z,44.45
2023-01-25T17:48:17.610Z,48.70
2023-01-25T17:50:44.447Z,42.80
2023-01-25T17:53:11.479Z,48.22
2023-01-25T17:55:39.017Z,45.38
2023-01-25T17:58:06.134Z,45.08
2023-01-25T18:00:32.986Z,47.17
2023-01-25T18:03:00.011Z,42.15
2023-01-25T18:05:29.712Z,47.33
2023-01-25T18:07:56.592Z,46.72
2023-01-25T18:10:23.491Z,45.33
2023-01-25T18:13:03.753Z,43.38
2023-01-25T18:15:31.766Z,43.67
2023-01-25T18:17:59.500Z,42.35
2023-01-25T18:20:26.460Z,44.42
2023-01-25T18:22:54.119Z,46.30
2023-01-25T18:25:34.388Z,38.47
2023-01-25T18:28:01.412Z,39.97
2023-01-25T18:30:28.511Z,45.92
2023-01-25T18:32:55.979Z,42.95
2023-01-25T18:35:24.208Z,48.95
2023-01-25T18:37:51.832Z,46.78
2023-01-25T18:40:19.949Z,52.38
2023-01-25T18:42:46.993Z,51.45
2023-01-25T18:45:14.013Z,38.20
2023-01-25T18:47:41.174Z,40.72
2023-01-25T18:50:09.137Z,46.45
2023-01-25T18:52:36.224Z,45.40
2023-01-25T18:55:03.199Z,49.03
2023-01-25T18:57:30.134Z,49.78
2023-01-25T18:59:58.959Z,43.97
2023-01-25T19:02:27.124Z,44.25
2023-01-25T19:04:53.992Z,40.83
2023-01-25T19:07:21.063Z,39.75
2023-01-25T19:09:48.011Z,40.85
2023-01-25T19:12:14.917Z,49.17
2023-01-25T19:18:07.266Z,38.85
2023-01-25T19:20:34.424Z,42.38
2023-01-25T19:23:01.875Z,49.90
2023-01-25T19:25:30.649Z,44.22
2023-01-25T19:27:57.620Z,41.30
2023-01-25T19:30:24.489Z,45.20
2023-01-25T19:32:51.305Z,48.15
2023-01-25T19:35:18.251Z,52.58
2023-01-25T19:37:44.995Z,46.38
2023-01-25T19:40:12.713Z,44.75
2023-01-25T19:42:39.623Z,44.30
2023-01-25T19:45:06.881Z,44.05
2023-01-25T19:47:33.782Z,51.00
2023-01-25T19:50:02.692Z,48.70
2023-01-25T19:52:29.485Z,45.63
2023-01-25T19:54:56.436Z,48.45
2023-01-25T19:57:23.357Z,48.83
2023-01-25T19:59:50.228Z,49.80
2023-01-25T20:02:17.169Z,44.63
2023-01-25T20:04:43.958Z,48.25
2023-01-25T20:07:10.780Z,48.95
2023-01-25T20:09:37.651Z,48.28
2023-01-25T20:12:07.881Z,47.72
2023-01-25T20:14:36.207Z,45.78
2023-01-25T20:17:03.148Z,56.22
2023-01-25T20:19:30.398Z,56.67
2023-01-25T20:21:59.449Z,55.72
2023-01-25T20:24:27.267Z,55.95
2023-01-25T20:26:54.759Z,56.80
2023-01-25T20:29:22.266Z,50.67
2023-01-25T20:31:49.144Z,58.53
2023-01-25T20:34:21.942Z,52.38
2023-01-25T20:36:50.072Z,56.60
2023-01-25T20:39:19.759Z,59.20
2023-01-25T20:41:47.142Z,66.40
2023-01-25T20:44:17.012Z,65.55
2023-01-25T20:46:44.654Z,58.83
2023-01-25T20:49:15.599Z,60.53
2023-01-25T20:51:42.894Z,59.97
2023-01-25T20:54:10.055Z,56.85
2023-01-25T20:56:37.134Z,55.53
2023-01-25T20:59:04.108Z,59.75
2023-01-25T21:01:36.651Z,64.95
2023-01-25T21:04:06.265Z,73.32
2023-01-25T21:06:35.412Z,55.05
2023-01-25T21:09:03.622Z,57.55
2023-01-25T21:11:30.675Z,59.17
2023-01-25T21:13:59.755Z,58.38
2023-01-25T21:16:27.079Z,51.42
2023-01-25T21:18:59.426Z,54.92
2023-01-25T21:21:31.332Z,59.10
2023-01-25T21:24:00.132Z,54.85
2023-01-25T21:26:29.679Z,49.63
2023-01-25T21:28:57.957Z,49.13
2023-01-25T21:31:32.668Z,60.95
2023-01-25T21:34:00.736Z,61.95
2023-01-25T21:36:28.387Z,57.25
2023-01-25T21:38:55.532Z,55.72
2023-01-25T21:41:30.640Z,54.97
2023-01-25T21:44:17.816Z,55.92
2023-01-25T21:47:04.193Z,59.63
2023-01-25T21:50:01.548Z,46.45
2023-01-25T21:52:28.557Z,45.78
2023-01-25T21:54:55.398Z,50.53
2023-01-25T21:57:22.268Z,42.10
2023-01-25T21:59:49.186Z,45.95
2023-01-25T22:02:16.069Z,39.65
2023-01-25T22:04:44.170Z,48.17
2023-01-25T22:07:11.560Z,47.92
2023-01-25T22:09:38.322Z,37.92
2023-01-25T22:12:05.240Z,46.60
2023-01-25T22:14:32.116Z,43.08
2023-01-25T22:16:58.972Z,44.97
2023-01-25T22:19:25.985Z,35.70
2023-01-25T22:21:52.736Z,27.27
2023-01-25T22:24:19.740Z,27.45
2023-01-25T22:27:08.350Z,32.35
2023-01-25T22:29:35.134Z,25.55
2023-01-25T22:32:02.432Z,29.52
2023-01-25T22:34:29.316Z,24.33
2023-01-25T22:36:56.070Z,26.52
2023-01-25T22:39:22.835Z,28.60
2023-01-25T22:41:49.712Z,30.20
2023-01-25T22:44:16.618Z,25.83
2023-01-25T22:46:43.461Z,27.65
2023-01-25T22:49:10.264Z,24.92
2023-01-25T22:51:36.977Z,18.67
2023-01-25T22:54:03.835Z,26.35
2023-01-25T22:56:33.071Z,23.90
2023-01-25T22:59:01.113Z,26.02
2023-01-25T23:01:31.036Z,25.42
2023-01-25T23:03:58.579Z,27.02
2023-01-25T23:06:29.117Z,16.40
2023-01-25T23:08:57.672Z,27.05
2023-01-25T23:11:25.868Z,22.50
2023-01-25T23:14:11.948Z,23.88
2023-01-25T23:16:38.684Z,19.42
2023-01-25T23:19:05.894Z,24.02
2023-01-25T23:21:33.436Z,25.55
2023-01-25T23:24:01.566Z,23.45
2023-01-25T23:26:37.474Z,25.75
2023-01-25T23:29:07.189Z,27.25
2023-01-25T23:31:34.171Z,20.80
2023-01-25T23:34:03.216Z,27.15
2023-01-25T23:36:35.465Z,24.33
2023-01-25T23:39:02.605Z,22.25
2023-01-25T23:41:30.436Z,20.45
2023-01-25T23:43:58.062Z,20.42
2023-01-25T23:46:25.593Z,20.27
2023-01-25T23:48:52.702Z,17.05
2023-01-25T23:51:20.027Z,21.40
2023-01-25T23:53:47.225Z,20.80
2023-01-25T23:56:17.072Z,14.05
2023-01-25T23:58:44.782Z,21.90
